sensor_id;sensor_type;location;lat;lon;timestamp;pressure;altitude;pressure_sealevel;temperature;humidity
19108;BME280;9686;48.832;9.126;2023-09-12T00:11:40;96882.03;;;14.04;nan
19108;BME280;9686;48.832;9.126;2023-09-12T00:18:58;96995.50;;;14.72;nan
19108;BME280;9686;48.832;9.126;2023-09-12T00:21:24;97004.50;;;14.87;nan
19108;BME280;9686;48.832;9.126;2023-09-12T00:23:49;97404.09;;;17.45;nan
19108;BME280;9686;48.832;9.126;2023-09-12T00:26:14;97866.88;;;20.59;nan
19108;BME280;9686;48.832;9.126;2023-09-12T00:28:39;97842.03;;;20.61;nan
19108;BME280;9686;48.832;9.126;2023-09-12T00:31:05;97823.94;;;20.52;nan
19108;BME280;9686;48.832;9.126;2023-09-12T00:33:30;97816.56;;;20.42;nan
19108;BME280;9686;48.832;9.126;2023-09-12T00:35:56;97828.00;;;20.42;nan
19108;BME280;9686;48.832;9.126;2023-09-12T00:38:21;97841.63;;;20.35;nan
19108;BME280;9686;48.832;9.126;2023-09-12T00:40:46;97831.97;;;20.33;nan
19108;BME280;9686;48.832;9.126;2023-09-12T00:43:12;97804.03;;;20.78;nan
19108;BME280;9686;48.832;9.126;2023-09-12T00:45:37;97803.38;;;20.90;nan
19108;BME280;9686;48.832;9.126;2023-09-12T00:48:04;97811.84;;;20.97;nan
19108;BME280;9686;48.832;9.126;2023-09-12T00:50:30;97803.38;;;20.90;nan
19108;BME280;9686;48.832;9.126;2023-09-12T00:52:56;97805.59;;;20.82;nan
19108;BME280;9686;48.832;9.126;2023-09-12T00:55:22;97799.69;;;20.93;nan
19108;BME280;9686;48.832;9.126;2023-09-12T00:57:47;97801.66;;;21.05;nan
19108;BME280;9686;48.832;9.126;2023-09-12T01:00:14;97799.72;;;21.09;nan
19108;BME280;9686;48.832;9.126;2023-09-12T01:02:42;97791.53;;;21.13;nan
19108;BME280;9686;48.832;9.126;2023-09-12T01:05:09;97795.13;;;21.12;nan
19108;BME280;9686;48.832;9.126;2023-09-12T01:07:37;97793.22;;;21.14;nan
19108;BME280;9686;48.832;9.126;2023-09-12T01:10:04;97781.78;;;21.14;nan
19108;BME280;9686;48.832;9.126;2023-09-12T01:12:30;97787.00;;;21.15;nan
19108;BME280;9686;48.832;9.126;2023-09-12T01:14:55;97779.53;;;21.06;nan
19108;BME280;9686;48.832;9.126;2023-09-12T01:17:21;97783.03;;;21.07;nan
19108;BME280;9686;48.832;9.126;2023-09-12T01:19:47;97785.09;;;21.02;nan
19108;BME280;9686;48.832;9.126;2023-09-12T01:27:40;97786.31;;;20.79;nan
19108;BME280;9686;48.832;9.126;2023-09-12T01:30:08;97783.16;;;20.72;nan
19108;BME280;9686;48.832;9.126;2023-09-12T01:32:35;97789.56;;;20.68;nan
19108;BME280;9686;48.832;9.126;2023-09-12T01:35:01;97798.28;;;20.70;nan
19108;BME280;9686;48.832;9.126;2023-09-12T01:37:31;97788.72;;;20.68;nan
19108;BME280;9686;48.832;9.126;2023-09-12T01:39:57;97794.22;;;20.96;nan
19108;BME280;9686;48.832;9.126;2023-09-12T01:42:24;97788.50;;;20.88;nan
19108;BME280;9686;48.832;9.126;2023-09-12T01:44:55;97790.28;;;20.87;nan
19108;BME280;9686;48.832;9.126;2023-09-12T01:47:21;97785.72;;;20.74;nan
19108;BME280;9686;48.832;9.126;2023-09-12T01:49:49;97792.38;;;20.65;nan
19108;BME280;9686;48.832;9.126;2023-09-12T01:52:16;97798.69;;;20.62;nan
19108;BME280;9686;48.832;9.126;2023-09-12T01:54:42;97786.59;;;20.74;nan
19108;BME280;9686;48.832;9.126;2023-09-12T01:57:08;97793.00;;;20.70;nan
19108;BME280;9686;48.832;9.126;2023-09-12T01:59:35;97794.88;;;20.68;nan
19108;BME280;9686;48.832;9.126;2023-09-12T02:02:00;97786.16;;;20.66;nan
19108;BME280;9686;48.832;9.126;2023-09-12T02:04:25;97789.91;;;20.62;nan
19108;BME280;9686;48.832;9.126;2023-09-12T02:06:51;97785.84;;;20.55;nan
19108;BME280;9686;48.832;9.126;2023-09-12T02:09:16;97788.91;;;20.47;nan
19108;BME280;9686;48.832;9.126;2023-09-12T02:11:41;97786.50;;;20.43;nan
19108;BME280;9686;48.832;9.126;2023-09-12T02:14:06;97780.72;;;20.52;nan
19108;BME280;9686;48.832;9.126;2023-09-12T02:16:32;97783.84;;;20.43;nan
19108;BME280;9686;48.832;9.126;2023-09-12T02:18:57;97790.38;;;20.36;nan
19108;BME280;9686;48.832;9.126;2023-09-12T02:21:23;97790.75;;;20.28;nan
19108;BME280;9686;48.832;9.126;2023-09-12T02:23:48;97791.47;;;20.31;nan
19108;BME280;9686;48.832;9.126;2023-09-12T02:26:13;97793.50;;;20.26;nan
19108;BME280;9686;48.832;9.126;2023-09-12T02:28:38;97796.84;;;20.30;nan
19108;BME280;9686;48.832;9.126;2023-09-12T02:31:09;97787.91;;;20.32;nan
19108;BME280;9686;48.832;9.126;2023-09-12T02:33:35;97780.72;;;20.35;nan
19108;BME280;9686;48.832;9.126;2023-09-12T02:36:00;97789.97;;;20.26;nan
19108;BME280;9686;48.832;9.126;2023-09-12T02:38:25;97780.91;;;20.31;nan
19108;BME280;9686;48.832;9.126;2023-09-12T02:40:51;97773.81;;;20.32;nan
19108;BME280;9686;48.832;9.126;2023-09-12T02:43:16;97771.06;;;20.33;nan
19108;BME280;9686;48.832;9.126;2023-09-12T02:45:41;97764.84;;;20.35;nan
19108;BME280;9686;48.832;9.126;2023-09-12T02:48:07;97770.22;;;20.33;nan
19108;BME280;9686;48.832;9.126;2023-09-12T02:50:32;97774.09;;;20.26;nan
19108;BME280;9686;48.832;9.126;2023-09-12T02:52:58;97770.69;;;20.24;nan
19108;BME280;9686;48.832;9.126;2023-09-12T02:55:23;97771.16;;;20.32;nan
19108;BME280;9686;48.832;9.126;2023-09-12T02:57:48;97761.56;;;20.47;nan
19108;BME280;9686;48.832;9.126;2023-09-12T03:00:14;97763.22;;;20.32;nan
19108;BME280;9686;48.832;9.126;2023-09-12T03:02:39;97761.03;;;20.40;nan
19108;BME280;9686;48.832;9.126;2023-09-12T03:05:04;97765.25;;;20.44;nan
19108;BME280;9686;48.832;9.126;2023-09-12T03:07:30;97762.03;;;20.38;nan
19108;BME280;9686;48.832;9.126;2023-09-12T03:09:55;97760.78;;;20.27;nan
19108;BME280;9686;48.832;9.126;2023-09-12T03:12:21;97772.00;;;20.32;nan
19108;BME280;9686;48.832;9.126;2023-09-12T03:14:46;97773.41;;;20.40;nan
19108;BME280;9686;48.832;9.126;2023-09-12T03:17:11;97764.75;;;20.53;nan
19108;BME280;9686;48.832;9.126;2023-09-12T03:19:36;97770.75;;;20.57;nan
19108;BME280;9686;48.832;9.126;2023-09-12T03:22:02;97773.06;;;20.63;nan
19108;BME280;9686;48.832;9.126;2023-09-12T03:24:27;97771.69;;;20.56;nan
19108;BME280;9686;48.832;9.126;2023-09-12T03:26:54;97766.44;;;20.54;nan
19108;BME280;9686;48.832;9.126;2023-09-12T03:29:19;97763.97;;;20.51;nan
19108;BME280;9686;48.832;9.126;2023-09-12T03:31:44;97759.94;;;20.44;nan
19108;BME280;9686;48.832;9.126;2023-09-12T03:34:09;97752.28;;;20.38;nan
19108;BME280;9686;48.832;9.126;2023-09-12T03:36:35;97762.88;;;20.38;nan
19108;BME280;9686;48.832;9.126;2023-09-12T03:39:00;97761.50;;;20.48;nan
19108;BME280;9686;48.832;9.126;2023-09-12T03:41:26;97759.84;;;20.46;nan
19108;BME280;9686;48.832;9.126;2023-09-12T03:43:53;97755.63;;;20.59;nan
19108;BME280;9686;48.832;9.126;2023-09-12T03:46:19;97753.47;;;20.50;nan
19108;BME280;9686;48.832;9.126;2023-09-12T03:48:44;97753.38;;;20.51;nan
19108;BME280;9686;48.832;9.126;2023-09-12T03:51:11;97754.78;;;20.58;nan
19108;BME280;9686;48.832;9.126;2023-09-12T03:53:36;97753.72;;;20.45;nan
19108;BME280;9686;48.832;9.126;2023-09-12T03:56:01;97753.41;;;20.34;nan
19108;BME280;9686;48.832;9.126;2023-09-12T03:58:26;97770.59;;;20.25;nan
19108;BME280;9686;48.832;9.126;2023-09-12T04:00:52;97757.69;;;20.37;nan
19108;BME280;9686;48.832;9.126;2023-09-12T04:03:17;97745.56;;;20.15;nan
19108;BME280;9686;48.832;9.126;2023-09-12T04:05:42;97759.84;;;20.28;nan
19108;BME280;9686;48.832;9.126;2023-09-12T04:08:08;97760.31;;;20.37;nan
19108;BME280;9686;48.832;9.126;2023-09-12T04:10:33;97753.53;;;20.48;nan
19108;BME280;9686;48.832;9.126;2023-09-12T04:12:58;97754.72;;;20.43;nan
19108;BME280;9686;48.832;9.126;2023-09-12T04:15:23;97761.94;;;20.39;nan
19108;BME280;9686;48.832;9.126;2023-09-12T04:17:49;97755.66;;;20.42;nan
19108;BME280;9686;48.832;9.126;2023-09-12T04:20:14;97755.59;;;20.43;nan
19108;BME280;9686;48.832;9.126;2023-09-12T04:22:41;97756.78;;;20.53;nan
19108;BME280;9686;48.832;9.126;2023-09-12T04:25:07;97753.97;;;20.41;nan
19108;BME280;9686;48.832;9.126;2023-09-12T04:27:32;97755.81;;;20.39;nan
19108;BME280;9686;48.832;9.126;2023-09-12T04:29:59;97754.31;;;20.50;nan
19108;BME280;9686;48.832;9.126;2023-09-12T04:32:24;97763.28;;;20.48;nan
19108;BME280;9686;48.832;9.126;2023-09-12T04:34:50;97756.56;;;20.58;nan
19108;BME280;9686;48.832;9.126;2023-09-12T04:37:15;97748.53;;;20.59;nan
19108;BME280;9686;48.832;9.126;2023-09-12T04:39:41;97748.75;;;20.55;nan
19108;BME280;9686;48.832;9.126;2023-09-12T04:42:06;97749.56;;;20.57;nan
19108;BME280;9686;48.832;9.126;2023-09-12T04:44:41;97743.84;;;20.65;nan
19108;BME280;9686;48.832;9.126;2023-09-12T04:47:07;97744.69;;;20.65;nan
19108;BME280;9686;48.832;9.126;2023-09-12T04:49:33;97753.34;;;20.69;nan
19108;BME280;9686;48.832;9.126;2023-09-12T04:51:58;97744.44;;;20.70;nan
19108;BME280;9686;48.832;9.126;2023-09-12T04:54:23;97750.34;;;20.59;nan
19108;BME280;9686;48.832;9.126;2023-09-12T04:56:49;97751.38;;;20.72;nan
19108;BME280;9686;48.832;9.126;2023-09-12T04:59:14;97745.00;;;20.92;nan
19108;BME280;9686;48.832;9.126;2023-09-12T05:01:39;97757.44;;;20.74;nan
19108;BME280;9686;48.832;9.126;2023-09-12T05:04:05;97743.09;;;20.78;nan
19108;BME280;9686;48.832;9.126;2023-09-12T05:06:30;97748.16;;;20.83;nan
19108;BME280;9686;48.832;9.126;2023-09-12T05:08:55;97741.31;;;20.94;nan
19108;BME280;9686;48.832;9.126;2023-09-12T05:11:24;97745.25;;;21.03;nan
19108;BME280;9686;48.832;9.126;2023-09-12T05:13:49;97738.91;;;21.06;nan
19108;BME280;9686;48.832;9.126;2023-09-12T05:16:15;97744.06;;;21.09;nan
19108;BME280;9686;48.832;9.126;2023-09-12T05:18:40;97742.19;;;21.11;nan
19108;BME280;9686;48.832;9.126;2023-09-12T05:21:05;97747.22;;;21.15;nan
19108;BME280;9686;48.832;9.126;2023-09-12T05:23:31;97748.25;;;21.13;nan
19108;BME280;9686;48.832;9.126;2023-09-12T05:25:56;97744.31;;;21.04;nan
19108;BME280;9686;48.832;9.126;2023-09-12T05:28:21;97737.56;;;21.14;nan
19108;BME280;9686;48.832;9.126;2023-09-12T05:30:46;97748.59;;;21.22;nan
19108;BME280;9686;48.832;9.126;2023-09-12T05:33:12;97751.22;;;21.22;nan
19108;BME280;9686;48.832;9.126;2023-09-12T05:35:37;97757.81;;;21.15;nan
19108;BME280;9686;48.832;9.126;2023-09-12T05:38:02;97768.53;;;21.30;nan
19108;BME280;9686;48.832;9.126;2023-09-12T05:40:28;97762.88;;;21.20;nan
19108;BME280;9686;48.832;9.126;2023-09-12T05:42:53;97761.09;;;21.36;nan
19108;BME280;9686;48.832;9.126;2023-09-12T05:45:19;97757.25;;;21.42;nan
19108;BME280;9686;48.832;9.126;2023-09-12T05:47:44;97760.41;;;21.48;nan
19108;BME280;9686;48.832;9.126;2023-09-12T05:50:09;97757.28;;;21.56;nan
19108;BME280;9686;48.832;9.126;2023-09-12T05:52:35;97761.72;;;21.71;nan
19108;BME280;9686;48.832;9.126;2023-09-12T05:55:00;97770.06;;;21.65;nan
19108;BME280;9686;48.832;9.126;2023-09-12T05:57:26;97769.88;;;21.68;nan
19108;BME280;9686;48.832;9.126;2023-09-12T05:59:51;97767.56;;;21.62;nan
19108;BME280;9686;48.832;9.126;2023-09-12T06:02:16;97766.38;;;21.52;nan
19108;BME280;9686;48.832;9.126;2023-09-12T06:04:43;97771.94;;;21.47;nan
19108;BME280;9686;48.832;9.126;2023-09-12T06:07:08;97780.00;;;21.46;nan
19108;BME280;9686;48.832;9.126;2023-09-12T06:09:34;97822.84;;;21.46;nan
19108;BME280;9686;48.832;9.126;2023-09-12T06:11:59;97823.59;;;21.70;nan
19108;BME280;9686;48.832;9.126;2023-09-12T06:14:24;97814.03;;;21.56;nan
19108;BME280;9686;48.832;9.126;2023-09-12T06:16:49;97814.03;;;21.53;nan
19108;BME280;9686;48.832;9.126;2023-09-12T06:19:15;97795.63;;;21.50;nan
19108;BME280;9686;48.832;9.126;2023-09-12T06:21:41;97807.88;;;21.53;nan
19108;BME280;9686;48.832;9.126;2023-09-12T06:24:16;97842.19;;;21.67;nan
19108;BME280;9686;48.832;9.126;2023-09-12T06:26:42;97834.03;;;21.72;nan
19108;BME280;9686;48.832;9.126;2023-09-12T06:29:08;97791.75;;;22.76;nan
19108;BME280;9686;48.832;9.126;2023-09-12T06:31:34;97785.97;;;22.98;nan
19108;BME280;9686;48.832;9.126;2023-09-12T06:34:00;97786.91;;;22.68;nan
19108;BME280;9686;48.832;9.126;2023-09-12T06:36:26;97791.94;;;22.73;nan
19108;BME280;9686;48.832;9.126;2023-09-12T06:38:52;97792.13;;;22.70;nan
19108;BME280;9686;48.832;9.126;2023-09-12T06:41:20;97794.78;;;22.70;nan
19108;BME280;9686;48.832;9.126;2023-09-12T06:43:46;97795.44;;;22.73;nan
19108;BME280;9686;48.832;9.126;2023-09-12T06:46:12;97800.56;;;22.76;nan
19108;BME280;9686;48.832;9.126;2023-09-12T06:48:37;97799.25;;;22.84;nan
19108;BME280;9686;48.832;9.126;2023-09-12T06:51:08;97796.81;;;22.95;nan
19108;BME280;9686;48.832;9.126;2023-09-12T06:53:33;97805.16;;;23.03;nan
19108;BME280;9686;48.832;9.126;2023-09-12T06:55:58;97802.19;;;23.07;nan
19108;BME280;9686;48.832;9.126;2023-09-12T06:58:24;97803.25;;;23.05;nan
19108;BME280;9686;48.832;9.126;2023-09-12T07:00:49;97804.19;;;23.04;nan
19108;BME280;9686;48.832;9.126;2023-09-12T07:03:15;97802.97;;;22.95;nan
19108;BME280;9686;48.832;9.126;2023-09-12T07:05:41;97806.66;;;22.64;nan
19108;BME280;9686;48.832;9.126;2023-09-12T07:08:07;97819.16;;;22.76;nan
19108;BME280;9686;48.832;9.126;2023-09-12T07:10:32;97814.19;;;23.42;nan
19108;BME280;9686;48.832;9.126;2023-09-12T07:12:57;97821.81;;;23.33;nan
19108;BME280;9686;48.832;9.126;2023-09-12T07:15:23;97813.75;;;24.03;nan
19108;BME280;9686;48.832;9.126;2023-09-12T07:17:48;97812.06;;;24.54;nan
19108;BME280;9686;48.832;9.126;2023-09-12T07:20:14;97815.34;;;24.58;nan
19108;BME280;9686;48.832;9.126;2023-09-12T07:22:40;97819.41;;;24.64;nan
19108;BME280;9686;48.832;9.126;2023-09-12T07:25:06;97820.25;;;24.64;nan
19108;BME280;9686;48.832;9.126;2023-09-12T07:27:32;97826.53;;;24.63;nan
19108;BME280;9686;48.832;9.126;2023-09-12T07:29:58;97805.75;;;24.81;nan
19108;BME280;9686;48.832;9.126;2023-09-12T07:32:23;97809.72;;;24.75;nan
19108;BME280;9686;48.832;9.126;2023-09-12T07:34:49;97813.97;;;24.78;nan
19108;BME280;9686;48.832;9.126;2023-09-12T07:37:14;97810.31;;;24.91;nan
19108;BME280;9686;48.832;9.126;2023-09-12T07:39:40;97804.59;;;25.10;nan
19108;BME280;9686;48.832;9.126;2023-09-12T07:42:05;97797.97;;;25.52;nan
19108;BME280;9686;48.832;9.126;2023-09-12T07:44:30;97811.38;;;25.27;nan
19108;BME280;9686;48.832;9.126;2023-09-12T07:46:56;97804.13;;;25.29;nan
19108;BME280;9686;48.832;9.126;2023-09-12T07:49:21;97803.91;;;25.32;nan
19108;BME280;9686;48.832;9.126;2023-09-12T07:51:46;97796.69;;;25.45;nan
19108;BME280;9686;48.832;9.126;2023-09-12T07:54:12;97807.13;;;25.48;nan
19108;BME280;9686;48.832;9.126;2023-09-12T07:56:37;97804.78;;;25.57;nan
19108;BME280;9686;48.832;9.126;2023-09-12T07:59:03;97805.38;;;25.73;nan
19108;BME280;9686;48.832;9.126;2023-09-12T08:01:28;97805.81;;;26.15;nan
19108;BME280;9686;48.832;9.126;2023-09-12T08:03:53;97801.44;;;26.13;nan
19108;BME280;9686;48.832;9.126;2023-09-12T08:06:19;97805.63;;;26.29;nan
19108;BME280;9686;48.832;9.126;2023-09-12T08:08:45;97811.94;;;26.74;nan
19108;BME280;9686;48.832;9.126;2023-09-12T08:11:10;97810.63;;;26.91;nan
19108;BME280;9686;48.832;9.126;2023-09-12T08:13:36;97816.84;;;26.10;nan
19108;BME280;9686;48.832;9.126;2023-09-12T08:16:01;97818.28;;;26.03;nan
19108;BME280;9686;48.832;9.126;2023-09-12T08:18:29;97822.31;;;25.85;nan
19108;BME280;9686;48.832;9.126;2023-09-12T08:20:55;97822.44;;;26.07;nan
19108;BME280;9686;48.832;9.126;2023-09-12T08:23:20;97820.03;;;25.91;nan
19108;BME280;9686;48.832;9.126;2023-09-12T08:25:45;97820.16;;;26.13;nan
19108;BME280;9686;48.832;9.126;2023-09-12T08:28:10;97818.69;;;25.86;nan
19108;BME280;9686;48.832;9.126;2023-09-12T08:30:36;97817.44;;;26.02;nan
19108;BME280;9686;48.832;9.126;2023-09-12T08:33:01;97808.91;;;25.97;nan
19108;BME280;9686;48.832;9.126;2023-09-12T08:35:29;97807.78;;;25.89;nan
19108;BME280;9686;48.832;9.126;2023-09-12T08:37:54;97812.97;;;25.79;nan
19108;BME280;9686;48.832;9.126;2023-09-12T08:40:20;97811.88;;;25.81;nan
19108;BME280;9686;48.832;9.126;2023-09-12T08:42:45;97822.06;;;25.76;nan
19108;BME280;9686;48.832;9.126;2023-09-12T08:45:16;97820.00;;;25.80;nan
19108;BME280;9686;48.832;9.126;2023-09-12T08:47:44;97820.03;;;25.91;nan
19108;BME280;9686;48.832;9.126;2023-09-12T08:50:11;97808.91;;;26.56;nan
19108;BME280;9686;48.832;9.126;2023-09-12T08:52:37;97813.16;;;26.70;nan
19108;BME280;9686;48.832;9.126;2023-09-12T08:55:02;97807.91;;;26.57;nan
19108;BME280;9686;48.832;9.126;2023-09-12T08:57:30;97812.63;;;26.54;nan
19108;BME280;9686;48.832;9.126;2023-09-12T09:00:01;97811.03;;;26.51;nan
19108;BME280;9686;48.832;9.126;2023-09-12T09:02:43;97813.38;;;26.56;nan
19108;BME280;9686;48.832;9.126;2023-09-12T09:05:10;97813.28;;;26.57;nan
19108;BME280;9686;48.832;9.126;2023-09-12T09:07:37;97810.47;;;26.59;nan
19108;BME280;9686;48.832;9.126;2023-09-12T09:10:04;97805.00;;;26.60;nan
19108;BME280;9686;48.832;9.126;2023-09-12T09:12:31;97806.03;;;27.04;nan
19108;BME280;9686;48.832;9.126;2023-09-12T09:14:56;97802.56;;;27.58;nan
19108;BME280;9686;48.832;9.126;2023-09-12T09:17:21;97796.31;;;27.80;nan
19108;BME280;9686;48.832;9.126;2023-09-12T09:19:47;97807.09;;;27.69;nan
19108;BME280;9686;48.832;9.126;2023-09-12T09:22:13;97803.91;;;27.75;nan
19108;BME280;9686;48.832;9.126;2023-09-12T09:24:38;97803.97;;;27.84;nan
19108;BME280;9686;48.832;9.126;2023-09-12T09:27:03;97787.53;;;27.89;nan
19108;BME280;9686;48.832;9.126;2023-09-12T09:29:29;97792.13;;;27.98;nan
19108;BME280;9686;48.832;9.126;2023-09-12T09:31:59;97784.41;;;27.73;nan
19108;BME280;9686;48.832;9.126;2023-09-12T09:34:25;97784.56;;;27.71;nan
19108;BME280;9686;48.832;9.126;2023-09-12T09:36:55;97785.59;;;28.65;nan
19108;BME280;9686;48.832;9.126;2023-09-12T09:39:23;97772.03;;;28.66;nan
19108;BME280;9686;48.832;9.126;2023-09-12T09:41:51;97770.56;;;28.83;nan
19108;BME280;9686;48.832;9.126;2023-09-12T09:44:17;97770.53;;;28.52;nan
19108;BME280;9686;48.832;9.126;2023-09-12T09:46:43;97787.22;;;28.56;nan
19108;BME280;9686;48.832;9.126;2023-09-12T09:49:10;97809.66;;;28.02;nan
19108;BME280;9686;48.832;9.126;2023-09-12T09:51:42;97877.78;;;28.32;nan
19108;BME280;9686;48.832;9.126;2023-09-12T09:54:09;97780.69;;;28.28;nan
19108;BME280;9686;48.832;9.126;2023-09-12T09:56:54;97779.94;;;28.89;nan
19108;BME280;9686;48.832;9.126;2023-09-12T09:59:24;97769.16;;;29.09;nan
19108;BME280;9686;48.832;9.126;2023-09-12T10:01:58;97763.63;;;29.41;nan
19108;BME280;9686;48.832;9.126;2023-09-12T10:04:27;97758.59;;;29.17;nan
19108;BME280;9686;48.832;9.126;2023-09-12T10:06:55;97764.56;;;29.31;nan
19108;BME280;9686;48.832;9.126;2023-09-12T10:09:23;97750.13;;;29.32;nan
19108;BME280;9686;48.832;9.126;2023-09-12T10:11:51;97757.13;;;29.44;nan
19108;BME280;9686;48.832;9.126;2023-09-12T10:14:19;97749.81;;;29.56;nan
19108;BME280;9686;48.832;9.126;2023-09-12T10:16:47;97759.13;;;29.61;nan
19108;BME280;9686;48.832;9.126;2023-09-12T10:19:16;97766.47;;;29.59;nan
19108;BME280;9686;48.832;9.126;2023-09-12T10:24:33;97752.25;;;30.07;nan
19108;BME280;9686;48.832;9.126;2023-09-12T10:27:00;97750.84;;;30.13;nan
19108;BME280;9686;48.832;9.126;2023-09-12T10:29:27;97763.31;;;30.04;nan
19108;BME280;9686;48.832;9.126;2023-09-12T10:31:53;97754.66;;;30.10;nan
19108;BME280;9686;48.832;9.126;2023-09-12T10:34:18;97752.97;;;30.09;nan
19108;BME280;9686;48.832;9.126;2023-09-12T10:36:45;97757.78;;;30.05;nan
19108;BME280;9686;48.832;9.126;2023-09-12T10:39:12;97751.97;;;30.10;nan
19108;BME280;9686;48.832;9.126;2023-09-12T10:41:39;97754.94;;;30.07;nan
19108;BME280;9686;48.832;9.126;2023-09-12T10:44:16;97753.38;;;30.33;nan
19108;BME280;9686;48.832;9.126;2023-09-12T10:46:42;97746.69;;;30.37;nan
19108;BME280;9686;48.832;9.126;2023-09-12T10:49:09;97749.66;;;30.44;nan
19108;BME280;9686;48.832;9.126;2023-09-12T10:51:45;97755.16;;;30.62;nan
19108;BME280;9686;48.832;9.126;2023-09-12T10:54:35;97750.06;;;30.59;nan
19108;BME280;9686;48.832;9.126;2023-09-12T10:57:03;97754.44;;;30.60;nan
19108;BME280;9686;48.832;9.126;2023-09-12T10:59:28;97752.31;;;30.73;nan
19108;BME280;9686;48.832;9.126;2023-09-12T11:02:35;97756.41;;;30.77;nan
19108;BME280;9686;48.832;9.126;2023-09-12T11:05:03;97759.59;;;31.00;nan
19108;BME280;9686;48.832;9.126;2023-09-12T11:12:41;97742.38;;;31.11;nan
19108;BME280;9686;48.832;9.126;2023-09-12T11:15:08;97739.81;;;31.19;nan
19108;BME280;9686;48.832;9.126;2023-09-12T11:17:40;97736.09;;;31.47;nan
19108;BME280;9686;48.832;9.126;2023-09-12T11:20:06;97734.53;;;31.45;nan
19108;BME280;9686;48.832;9.126;2023-09-12T11:22:42;97733.72;;;31.62;nan
19108;BME280;9686;48.832;9.126;2023-09-12T11:25:22;97730.94;;;31.81;nan
19108;BME280;9686;48.832;9.126;2023-09-12T11:30:26;97727.09;;;32.45;nan
19108;BME280;9686;48.832;9.126;2023-09-12T11:32:54;97718.91;;;32.55;nan
19108;BME280;9686;48.832;9.126;2023-09-12T11:35:24;97718.63;;;32.92;nan
19108;BME280;9686;48.832;9.126;2023-09-12T11:37:53;97708.38;;;33.54;nan
19108;BME280;9686;48.832;9.126;2023-09-12T11:40:24;97707.44;;;34.45;nan
19108;BME280;9686;48.832;9.126;2023-09-12T11:42:50;97713.63;;;34.86;nan
19108;BME280;9686;48.832;9.126;2023-09-12T11:45:20;97703.69;;;35.79;nan
19108;BME280;9686;48.832;9.126;2023-09-12T11:47:46;97698.91;;;36.94;nan
19108;BME280;9686;48.832;9.126;2023-09-12T11:50:30;97713.75;;;37.57;nan
19108;BME280;9686;48.832;9.126;2023-09-12T11:53:07;97704.88;;;38.28;nan
19108;BME280;9686;48.832;9.126;2023-09-12T11:55:44;97700.97;;;38.37;nan
19108;BME280;9686;48.832;9.126;2023-09-12T11:58:11;97700.38;;;39.04;nan
19108;BME280;9686;48.832;9.126;2023-09-12T12:00:37;97692.28;;;39.65;nan
19108;BME280;9686;48.832;9.126;2023-09-12T12:03:03;97705.81;;;40.19;nan
19108;BME280;9686;48.832;9.126;2023-09-12T12:05:29;97703.28;;;40.04;nan
19108;BME280;9686;48.832;9.126;2023-09-12T12:07:54;97702.03;;;40.53;nan
19108;BME280;9686;48.832;9.126;2023-09-12T12:10:19;97708.75;;;40.18;nan
19108;BME280;9686;48.832;9.126;2023-09-12T12:12:45;97704.75;;;40.20;nan
19108;BME280;9686;48.832;9.126;2023-09-12T12:15:13;97699.84;;;39.15;nan
19108;BME280;9686;48.832;9.126;2023-09-12T12:17:41;97695.31;;;37.95;nan
19108;BME280;9686;48.832;9.126;2023-09-12T12:20:10;97695.03;;;37.48;nan
19108;BME280;9686;48.832;9.126;2023-09-12T12:22:40;97691.13;;;36.77;nan
19108;BME280;9686;48.832;9.126;2023-09-12T12:25:06;97690.84;;;35.73;nan
19108;BME280;9686;48.832;9.126;2023-09-12T12:27:32;97687.56;;;35.55;nan
19108;BME280;9686;48.832;9.126;2023-09-12T12:29:57;97687.28;;;35.11;nan
19108;BME280;9686;48.832;9.126;2023-09-12T12:32:23;97679.75;;;34.82;nan
19108;BME280;9686;48.832;9.126;2023-09-12T12:34:49;97683.38;;;34.66;nan
19108;BME280;9686;48.832;9.126;2023-09-12T12:37:14;97684.75;;;34.29;nan
19108;BME280;9686;48.832;9.126;2023-09-12T12:39:42;97679.88;;;34.17;nan
19108;BME280;9686;48.832;9.126;2023-09-12T12:42:09;97683.56;;;33.75;nan
19108;BME280;9686;48.832;9.126;2023-09-12T12:44:34;97682.16;;;33.38;nan
19108;BME280;9686;48.832;9.126;2023-09-12T12:47:06;97681.25;;;33.22;nan
19108;BME280;9686;48.832;9.126;2023-09-12T12:49:36;97682.75;;;33.24;nan
19108;BME280;9686;48.832;9.126;2023-09-12T12:52:04;97676.19;;;33.27;nan
19108;BME280;9686;48.832;9.126;2023-09-12T12:54:32;97679.53;;;33.21;nan
19108;BME280;9686;48.832;9.126;2023-09-12T12:56:58;97678.81;;;33.02;nan
19108;BME280;9686;48.832;9.126;2023-09-12T12:59:23;97672.84;;;32.83;nan
19108;BME280;9686;48.832;9.126;2023-09-12T13:01:50;97676.72;;;32.80;nan
19108;BME280;9686;48.832;9.126;2023-09-12T13:04:15;97667.84;;;32.70;nan
19108;BME280;9686;48.832;9.126;2023-09-12T13:06:41;97670.56;;;32.78;nan
19108;BME280;9686;48.832;9.126;2023-09-12T13:09:06;97658.22;;;32.67;nan
19108;BME280;9686;48.832;9.126;2023-09-12T13:11:33;97658.53;;;32.64;nan
19108;BME280;9686;48.832;9.126;2023-09-12T13:14:03;97654.19;;;32.71;nan
19108;BME280;9686;48.832;9.126;2023-09-12T13:16:34;97649.94;;;32.69;nan
19108;BME280;9686;48.832;9.126;2023-09-12T13:19:00;97643.69;;;32.68;nan
19108;BME280;9686;48.832;9.126;2023-09-12T13:21:25;97637.97;;;32.71;nan
19108;BME280;9686;48.832;9.126;2023-09-12T13:23:50;97640.63;;;32.89;nan
19108;BME280;9686;48.832;9.126;2023-09-12T13:26:16;97638.41;;;32.85;nan
19108;BME280;9686;48.832;9.126;2023-09-12T13:28:41;97642.59;;;32.79;nan
19108;BME280;9686;48.832;9.126;2023-09-12T13:31:06;97642.16;;;32.66;nan
19108;BME280;9686;48.832;9.126;2023-09-12T13:33:32;97649.75;;;32.62;nan
19108;BME280;9686;48.832;9.126;2023-09-12T13:35:57;97638.53;;;32.49;nan
19108;BME280;9686;48.832;9.126;2023-09-12T13:38:22;97637.34;;;32.43;nan
19108;BME280;9686;48.832;9.126;2023-09-12T13:40:48;97642.91;;;32.42;nan
19108;BME280;9686;48.832;9.126;2023-09-12T13:43:13;97639.84;;;32.37;nan
19108;BME280;9686;48.832;9.126;2023-09-12T13:45:40;97650.78;;;32.35;nan
19108;BME280;9686;48.832;9.126;2023-09-12T13:48:06;97649.59;;;32.30;nan
19108;BME280;9686;48.832;9.126;2023-09-12T13:50:32;97648.28;;;32.16;nan
19108;BME280;9686;48.832;9.126;2023-09-12T13:53:02;97634.56;;;32.27;nan
19108;BME280;9686;48.832;9.126;2023-09-12T13:55:34;97634.47;;;32.19;nan
19108;BME280;9686;48.832;9.126;2023-09-12T13:58:02;97633.66;;;32.01;nan
19108;BME280;9686;48.832;9.126;2023-09-12T14:00:27;97631.88;;;32.09;nan